Time;durP1;ratioP1;P1;durP2;ratioP2;P2;SDS_P1;SDS_P2;PMS_P1;PMS_P2;Temp;Humidity;BMP_temperature;BMP_pressure;BME280_temperature;BME280_humidity;BME280_pressure;Samples;Min_cycle;Max_cycle;Signal;HPM_P1;HPM_P2
2021/03/20 00:00:52;;;;;;;5.28;3.65;;;1.90;99.90;;;;;;5012330;28;20173;-81
2021/03/20 00:03:18;;;;;;;5.35;4.30;;;1.80;99.90;;;;;;5000697;28;20049;-81
2021/03/20 00:05:45;;;;;;;7.75;4.53;;;1.80;99.90;;;;;;5008838;28;20112;-81
2021/03/20 00:08:17;;;;;;;4.47;3.42;;;1.80;99.90;;;;;;5008445;28;20053;-81
2021/03/20 00:10:44;;;;;;;6.68;4.15;;;1.80;99.90;;;;;;4985770;28;20109;-81
2021/03/20 00:13:10;;;;;;;6.78;4.20;;;1.70;99.90;;;;;;5002085;28;20448;-81
2021/03/20 00:15:36;;;;;;;8.40;4.85;;;1.70;99.90;;;;;;5012705;28;20081;-81
2021/03/20 00:18:03;;;;;;;7.22;4.57;;;1.70;99.90;;;;;;5002897;28;20180;-80
2021/03/20 00:20:34;;;;;;;5.00;3.80;;;1.70;99.90;;;;;;4998747;28;20144;-80
2021/03/20 00:23:01;;;;;;;7.65;3.97;;;1.70;99.90;;;;;;5012191;28;20049;-81
2021/03/20 00:25:30;;;;;;;5.80;3.80;;;1.60;99.90;;;;;;5008989;28;20061;-80
2021/03/20 00:27:58;;;;;;;6.63;3.65;;;1.60;99.90;;;;;;4998434;28;20136;-81
2021/03/20 00:30:29;;;;;;;6.85;4.30;;;1.60;99.90;;;;;;4990829;28;20821;-81
2021/03/20 00:32:55;;;;;;;8.57;4.82;;;1.60;99.90;;;;;;4994484;28;20062;-81
2021/03/20 00:35:24;;;;;;;5.47;4.07;;;1.60;99.90;;;;;;5000082;28;20053;-82
2021/03/20 00:37:52;;;;;;;6.00;4.35;;;1.60;99.90;;;;;;5001899;28;20149;-81
2021/03/20 00:40:26;;;;;;;5.35;3.83;;;1.60;99.90;;;;;;4995037;28;20133;-80
2021/03/20 00:42:53;;;;;;;5.97;4.30;;;1.50;99.90;;;;;;4984653;28;20133;-82
2021/03/20 00:45:21;;;;;;;9.70;4.00;;;1.50;99.90;;;;;;4984399;28;20394;-80
2021/03/20 00:47:50;;;;;;;7.45;4.35;;;1.50;99.90;;;;;;4998562;28;20106;-81
2021/03/20 00:50:20;;;;;;;6.60;4.03;;;1.50;99.90;;;;;;4987086;28;20056;-81
2021/03/20 00:52:46;;;;;;;5.88;3.90;;;1.60;99.90;;;;;;5008399;28;20141;-81
2021/03/20 00:55:13;;;;;;;9.13;4.50;;;1.50;99.90;;;;;;5001156;28;20093;-81
2021/03/20 00:57:40;;;;;;;8.95;4.10;;;1.50;99.90;;;;;;4990994;28;20066;-81
2021/03/20 01:00:14;;;;;;;6.97;4.50;;;1.50;99.90;;;;;;5001482;28;20053;-81
2021/03/20 01:02:40;;;;;;;;;;;1.50;99.90;;;;;;4997214;28;20050;-80
2021/03/20 01:05:09;;;;;;;8.93;3.55;;;1.50;99.90;;;;;;5002957;28;19944;-81
2021/03/20 01:07:36;;;;;;;6.45;4.20;;;1.40;99.90;;;;;;5013369;28;20045;-81
2021/03/20 01:10:08;;;;;;;7.25;4.07;;;1.40;99.90;;;;;;4997592;28;20097;-80
2021/03/20 01:12:35;;;;;;;5.88;4.35;;;1.40;99.90;;;;;;5011832;28;20100;-80
2021/03/20 01:15:03;;;;;;;8.02;4.20;;;1.30;99.90;;;;;;4991967;28;20061;-80
2021/03/20 01:17:29;;;;;;;9.80;4.55;;;1.30;99.90;;;;;;4996898;28;20042;-80
2021/03/20 01:19:56;;;;;;;7.80;4.60;;;1.30;99.90;;;;;;4988792;28;20113;-80
2021/03/20 01:22:23;;;;;;;6.00;4.35;;;1.20;99.90;;;;;;5010308;28;20051;-80
2021/03/20 01:24:49;;;;;;;6.00;4.20;;;1.20;99.90;;;;;;5007713;28;20069;-80
2021/03/20 01:27:15;;;;;;;7.30;4.80;;;1.10;99.90;;;;;;5010583;28;20069;-80
2021/03/20 01:29:41;;;;;;;9.38;4.80;;;1.10;99.90;;;;;;5004201;28;20081;-80
2021/03/20 01:32:08;;;;;;;9.73;4.82;;;1.10;99.90;;;;;;5007091;28;20077;-79
2021/03/20 01:34:34;;;;;;;8.57;5.28;;;1.00;99.90;;;;;;4992964;28;20061;-79
2021/03/20 01:37:01;;;;;;;7.40;4.30;;;1.00;99.90;;;;;;5000970;28;20057;-79
2021/03/20 01:39:45;;;;;;;7.25;4.53;;;1.00;99.90;;;;;;5005139;28;20101;-79
2021/03/20 01:42:12;;;;;;;7.18;4.68;;;0.90;99.90;;;;;;4995168;28;20062;-79
2021/03/20 01:44:38;;;;;;;9.30;5.00;;;0.90;99.90;;;;;;4996344;28;20553;-79
2021/03/20 01:47:13;;;;;;;9.85;5.20;;;0.80;99.90;;;;;;5009334;28;20050;-80
2021/03/20 01:49:46;;;;;;;9.38;4.95;;;0.80;99.90;;;;;;5005452;28;20046;-79
2021/03/20 01:52:12;;;;;;;11.48;5.22;;;0.80;99.90;;;;;;5008730;28;20105;-80
2021/03/20 01:54:48;;;;;;;8.07;4.18;;;0.80;99.90;;;;;;5004623;28;20112;-79
2021/03/20 01:57:20;;;;;;;6.95;4.57;;;0.70;99.90;;;;;;4985449;28;563075;-80
2021/03/20 01:59:47;;;;;;;9.40;4.75;;;0.70;99.90;;;;;;4994786;28;20063;-80
2021/03/20 02:02:14;;;;;;;9.63;4.47;;;0.70;99.90;;;;;;5008464;28;20104;-80
2021/03/20 02:04:41;;;;;;;7.53;5.47;;;0.60;99.90;;;;;;5007689;28;20054;-81
2021/03/20 02:07:07;;;;;;;11.00;5.25;;;0.60;99.90;;;;;;5000313;28;20053;-81
2021/03/20 02:09:35;;;;;;;6.93;4.72;;;0.60;99.90;;;;;;5009144;28;20065;-81
2021/03/20 02:12:20;;;;;;;9.75;5.07;;;0.50;99.90;;;;;;5006478;28;20125;-81
2021/03/20 02:15:07;;;;;;;9.05;4.55;;;0.50;99.90;;;;;;5008775;28;20073;-81
2021/03/20 02:17:42;;;;;;;6.93;4.55;;;0.50;99.90;;;;;;4992026;28;20062;-81
2021/03/20 02:20:28;;;;;;;9.35;5.18;;;0.50;99.90;;;;;;4989009;28;20050;-80
2021/03/20 02:23:12;;;;;;;7.45;5.03;;;0.40;99.90;;;;;;5008214;28;20041;-81
2021/03/20 02:26:12;;;;;;;8.32;5.20;;;0.40;99.90;;;;;;5005389;28;20060;-81
2021/03/20 02:28:59;;;;;;;9.50;4.82;;;0.40;99.90;;;;;;4996033;28;20068;-80
2021/03/20 02:31:57;;;;;;;10.45;5.00;;;0.40;99.90;;;;;;5008433;28;20831;-81
2021/03/20 02:34:45;;;;;;;9.20;4.82;;;0.30;99.90;;;;;;4993915;28;20042;-81
2021/03/20 02:37:21;;;;;;;12.43;5.00;;;0.30;99.90;;;;;;5007606;28;20541;-80
2021/03/20 02:40:03;;;;;;;6.72;4.63;;;0.20;99.90;;;;;;4990293;28;20069;-81
2021/03/20 02:42:34;;;;;;;10.88;5.32;;;0.20;99.90;;;;;;5007814;28;20046;-81
2021/03/20 02:45:13;;;;;;;8.65;5.00;;;0.20;99.90;;;;;;5003257;28;20080;-81
2021/03/20 02:47:51;;;;;;;10.57;5.50;;;0.10;99.90;;;;;;5004703;28;20094;-81
2021/03/20 02:50:25;;;;;;;8.32;5.30;;;0.10;99.90;;;;;;4995422;28;20046;-81
2021/03/20 02:53:09;;;;;;;8.38;4.65;;;0.10;99.90;;;;;;5007838;28;20813;-81
2021/03/20 02:55:44;;;;;;;6.53;4.67;;;0.00;99.90;;;;;;4988140;28;20050;-80
2021/03/20 02:58:18;;;;;;;11.15;6.03;;;0.00;99.90;;;;;;4989468;28;20564;-80
2021/03/20 03:01:00;;;;;;;8.57;4.93;;;0.00;99.90;;;;;;4988301;28;20416;-79
2021/03/20 03:03:32;;;;;;;9.30;5.15;;;-0.10;99.90;;;;;;4989199;28;20569;-80
2021/03/20 03:06:02;;;;;;;10.30;5.28;;;-0.10;99.90;;;;;;5008286;28;20564;-80
2021/03/20 03:08:32;;;;;;;10.55;4.60;;;-0.10;99.90;;;;;;5006781;28;20175;-80
2021/03/20 03:11:40;;;;;;;7.40;5.00;;;-0.10;99.90;;;;;;5010272;28;20092;-80
2021/03/20 03:14:11;;;;;;;13.02;5.90;;;-0.20;99.90;;;;;;4989215;28;20124;-80
2021/03/20 03:16:45;;;;;;;13.48;5.35;;;-0.20;99.90;;;;;;5010122;28;20133;-80
2021/03/20 03:19:19;;;;;;;9.35;5.57;;;-0.20;99.90;;;;;;4991671;28;20037;-80
2021/03/20 03:21:50;;;;;;;8.60;5.45;;;-0.30;99.90;;;;;;4989969;28;20531;-80
2021/03/20 03:24:21;;;;;;;13.48;5.85;;;-0.30;99.90;;;;;;4984842;28;20066;-80
2021/03/20 03:26:52;;;;;;;11.18;5.30;;;-0.30;99.90;;;;;;5008923;28;20046;-81
2021/03/20 03:29:24;;;;;;;8.50;5.15;;;-0.30;99.90;;;;;;4988015;28;20499;-80
2021/03/20 03:32:16;;;;;;;7.38;5.07;;;-0.30;99.90;;;;;;4981984;28;20135;-81
2021/03/20 03:34:58;;;;;;;10.88;5.57;;;-0.30;99.90;;;;;;4994091;28;20068;-81
2021/03/20 03:37:44;;;;;;;7.47;5.15;;;-0.40;99.90;;;;;;5011820;28;20129;-80
2021/03/20 03:40:15;;;;;;;15.95;5.57;;;-0.40;99.90;;;;;;4998477;28;20474;-81
2021/03/20 03:42:41;;;;;;;13.05;5.38;;;-0.40;99.90;;;;;;4994239;28;20133;-80
2021/03/20 03:45:11;;;;;;;8.88;4.93;;;-0.40;99.90;;;;;;5001331;28;20054;-80
2021/03/20 03:47:38;;;;;;;12.90;5.97;;;-0.40;99.90;;;;;;5010579;28;20049;-81
2021/03/20 03:50:14;;;;;;;9.98;5.57;;;-0.40;99.90;;;;;;4999682;28;20046;-81
2021/03/20 03:52:40;;;;;;;10.98;5.68;;;-0.50;99.90;;;;;;5009770;28;20077;-81
2021/03/20 03:55:08;;;;;;;11.75;5.25;;;-0.50;99.90;;;;;;4993633;28;20049;-81
2021/03/20 03:57:57;;;;;;;9.95;5.68;;;-0.50;99.90;;;;;;4991301;28;20054;-81
2021/03/20 04:00:39;;;;;;;12.15;5.88;;;-0.50;99.90;;;;;;4968427;28;20055;-80
2021/03/20 04:03:41;;;;;;;14.95;6.07;;;-0.50;99.90;;;;;;4968239;28;20507;-81
2021/03/20 04:06:54;;;;;;;10.80;5.75;;;-0.50;99.90;;;;;;4968631;28;20056;-81
2021/03/20 04:09:46;;;;;;;12.90;5.85;;;-0.60;99.90;;;;;;4966609;28;20139;-80
2021/03/20 04:12:26;;;;;;;11.45;5.70;;;-0.60;99.90;;;;;;4987277;28;20045;-81
2021/03/20 04:15:07;;;;;;;12.63;5.78;;;-0.60;99.90;;;;;;4969531;28;20071;-81
2021/03/20 04:17:58;;;;;;;11.07;5.53;;;-0.60;99.90;;;;;;4966323;28;20059;-81
2021/03/20 04:20:38;;;;;;;12.10;6.03;;;-0.60;99.90;;;;;;4986720;28;20138;-81
2021/03/20 04:23:15;;;;;;;15.63;6.80;;;-0.60;99.90;;;;;;4966365;28;20074;-81
2021/03/20 04:26:08;;;;;;;13.55;6.20;;;-0.70;99.90;;;;;;4968834;28;20158;-81
2021/03/20 04:28:54;;;;;;;12.52;6.30;;;-0.60;99.90;;;;;;4969992;28;20101;-81
2021/03/20 04:31:34;;;;;;;11.45;5.72;;;-0.60;99.90;;;;;;4971296;28;20546;-81
2021/03/20 04:34:04;;;;;;;13.55;6.78;;;-0.60;99.90;;;;;;4968192;28;20047;-81
2021/03/20 04:36:41;;;;;;;9.68;5.70;;;-0.60;99.90;;;;;;4981448;28;20097;-81
2021/03/20 04:39:10;;;;;;;9.02;4.97;;;-0.60;99.90;;;;;;4969814;28;20169;-80
2021/03/20 04:41:37;;;;;;;11.77;5.65;;;-0.60;99.90;;;;;;4968549;28;20047;-80
2021/03/20 04:44:04;;;;;;;11.82;6.88;;;-0.60;99.90;;;;;;4969076;28;20203;-81
2021/03/20 04:46:37;;;;;;;10.93;6.18;;;-0.50;99.90;;;;;;4968782;28;20053;-81
2021/03/20 04:49:12;;;;;;;13.20;5.95;;;-0.50;99.90;;;;;;4968629;28;20051;-80
2021/03/20 04:51:54;;;;;;;11.38;5.95;;;-0.50;99.90;;;;;;4972543;28;20049;-80
2021/03/20 04:54:21;;;;;;;13.18;6.35;;;-0.50;99.90;;;;;;4969736;28;20463;-81
2021/03/20 04:57:04;;;;;;;12.15;6.30;;;-0.60;99.90;;;;;;4976891;28;20557;-79
2021/03/20 04:59:55;;;;;;;13.50;6.03;;;-0.60;99.90;;;;;;4992419;28;20112;-80
2021/03/20 05:02:27;;;;;;;11.48;5.90;;;-0.50;99.90;;;;;;5001051;28;20168;-80
2021/03/20 05:05:00;;;;;;;15.50;6.82;;;-0.50;99.90;;;;;;5008741;28;20630;-80
2021/03/20 05:07:29;;;;;;;11.27;7.30;;;-0.50;99.90;;;;;;5007977;28;20497;-80
2021/03/20 05:10:00;;;;;;;8.98;5.55;;;-0.50;99.90;;;;;;4995663;28;20045;-80
2021/03/20 05:12:33;;;;;;;9.90;5.95;;;-0.60;99.90;;;;;;4989946;28;20050;-80
2021/03/20 05:15:26;;;;;;;10.10;5.55;;;-0.50;99.90;;;;;;5006137;28;20073;-81
2021/03/20 05:17:53;;;;;;;10.82;5.95;;;-0.50;99.90;;;;;;4992815;28;20152;-81
2021/03/20 05:20:20;;;;;;;11.45;5.75;;;-0.40;99.90;;;;;;4993195;28;21117;-81
2021/03/20 05:22:47;;;;;;;11.27;6.05;;;-0.40;99.90;;;;;;4990786;28;20156;-80
2021/03/20 05:25:15;;;;;;;14.35;6.40;;;-0.40;99.90;;;;;;5003910;28;20049;-81
2021/03/20 05:27:43;;;;;;;10.93;5.60;;;-0.30;99.90;;;;;;4993951;28;20046;-80
2021/03/20 05:30:11;;;;;;;10.65;6.78;;;-0.30;99.90;;;;;;5004887;28;20072;-80
2021/03/20 05:32:38;;;;;;;9.98;5.63;;;-0.20;99.90;;;;;;5000096;28;20050;-80
2021/03/20 05:35:10;;;;;;;10.90;5.80;;;-0.10;99.90;;;;;;5004048;28;20061;-80
2021/03/20 05:37:39;;;;;;;14.80;6.32;;;-0.10;99.90;;;;;;4993678;28;20042;-81
2021/03/20 05:40:30;;;;;;;9.27;5.63;;;0.00;99.90;;;;;;5003959;28;20524;-80
2021/03/20 05:43:04;;;;;;;15.82;6.53;;;0.00;99.90;;;;;;5005048;28;20053;-80
2021/03/20 05:45:42;;;;;;;11.75;5.90;;;0.00;99.90;;;;;;5006566;28;20125;-82
2021/03/20 05:48:24;;;;;;;12.98;6.60;;;0.00;99.90;;;;;;4989173;28;20045;-80
2021/03/20 05:51:14;;;;;;;10.98;5.75;;;0.00;99.90;;;;;;4987627;28;20053;-81
2021/03/20 05:53:54;;;;;;;13.90;6.30;;;0.10;99.90;;;;;;4991755;28;20046;-80
2021/03/20 05:56:50;;;;;;;11.50;6.60;;;0.10;99.90;;;;;;5003544;28;20128;-80
2021/03/20 05:59:27;;;;;;;12.32;6.68;;;0.10;99.90;;;;;;4987146;28;22201;-81
2021/03/20 06:02:17;;;;;;;11.65;6.80;;;0.20;99.90;;;;;;5004088;28;20140;-80
2021/03/20 06:04:50;;;;;;;12.77;6.82;;;0.30;99.90;;;;;;5009933;28;20049;-82
2021/03/20 06:07:43;;;;;;;11.68;6.03;;;0.30;99.90;;;;;;4999197;28;20038;-82
2021/03/20 06:10:15;;;;;;;10.02;6.10;;;0.40;99.90;;;;;;5006447;28;20109;-82
2021/03/20 06:13:11;;;;;;;9.02;6.28;;;0.60;99.90;;;;;;4999020;28;20140;-82
2021/03/20 06:16:02;;;;;;;10.70;5.50;;;0.70;99.90;;;;;;4993399;28;20110;-83
2021/03/20 06:19:28;;;;;;;8.63;5.40;;;0.80;99.90;;;;;;5003795;28;20058;-82
2021/03/20 06:22:17;;;;;;;10.95;6.28;;;0.90;99.90;;;;;;5003676;28;20106;-82
2021/03/20 06:25:04;;;;;;;10.35;6.78;;;1.10;99.90;;;;;;4993583;28;20085;-82
2021/03/20 06:27:42;;;;;;;9.65;6.45;;;1.10;99.90;;;;;;4992660;28;20046;-82
2021/03/20 06:30:28;;;;;;;8.75;6.25;;;1.30;99.90;;;;;;5009648;28;20056;-81
2021/03/20 06:33:02;;;;;;;14.52;6.65;;;1.30;99.90;;;;;;5009137;28;20041;-82
2021/03/20 06:35:29;;;;;;;9.05;6.38;;;1.40;99.90;;;;;;4998752;28;20042;-82
2021/03/20 06:37:59;;;;;;;11.43;6.38;;;1.50;99.90;;;;;;5005639;28;20240;-82
2021/03/20 06:40:48;;;;;;;8.00;5.43;;;1.60;99.90;;;;;;4974970;28;20069;-81
2021/03/20 06:43:17;;;;;;;10.63;6.47;;;1.70;99.90;;;;;;4992925;28;20137;-82
2021/03/20 06:45:44;;;;;;;10.80;6.22;;;1.70;99.90;;;;;;5009562;28;20127;-82
2021/03/20 06:48:20;;;;;;;14.05;7.70;;;1.80;99.90;;;;;;5008986;28;20096;-81
2021/03/20 06:50:51;;;;;;;9.52;6.72;;;1.80;99.90;;;;;;4994366;28;20068;-82
2021/03/20 06:53:24;;;;;;;7.95;5.70;;;1.90;99.90;;;;;;4992200;28;20129;-81
2021/03/20 06:55:51;;;;;;;13.52;6.07;;;1.90;99.90;;;;;;5004300;28;20490;-79
2021/03/20 06:58:27;;;;;;;11.05;6.07;;;2.00;99.90;;;;;;4999649;28;20045;-80
2021/03/20 07:01:01;;;;;;;12.90;6.07;;;2.10;99.90;;;;;;5010670;28;20800;-81
2021/03/20 07:03:38;;;;;;;11.23;6.43;;;2.20;99.90;;;;;;5007076;28;20077;-80
2021/03/20 07:06:11;;;;;;;10.93;6.38;;;2.30;99.90;;;;;;5006980;28;20445;-80
2021/03/20 07:08:59;;;;;;;10.43;6.47;;;2.30;99.90;;;;;;5010287;28;20068;-80
2021/03/20 07:11:35;;;;;;;10.07;6.20;;;2.40;99.90;;;;;;4992649;28;20090;-80
2021/03/20 07:15:02;;;;;;;10.60;6.18;;;2.50;99.90;;;;;;5008512;28;20050;-81
2021/03/20 07:17:30;;;;;;;;;;;2.60;99.90;;;;;;4989373;28;20046;-78
2021/03/20 07:20:13;;;;;;;8.75;5.63;;;2.60;99.90;;;;;;4987594;28;19929;-79
2021/03/20 07:22:45;;;;;;;9.43;5.70;;;2.70;99.90;;;;;;5007241;28;20053;-80
2021/03/20 07:25:31;;;;;;;8.88;6.20;;;2.80;99.90;;;;;;4995794;28;20073;-80
2021/03/20 07:28:22;;;;;;;8.60;6.13;;;2.80;99.90;;;;;;4990527;28;20053;-81
2021/03/20 07:31:03;;;;;;;10.80;6.82;;;2.90;99.90;;;;;;5009339;28;20037;-80
2021/03/20 07:33:40;;;;;;;11.25;6.13;;;3.00;99.90;;;;;;4994543;28;20042;-80
2021/03/20 07:36:31;;;;;;;9.45;6.75;;;3.10;99.90;;;;;;5009426;28;20168;-80
2021/03/20 07:39:15;;;;;;;13.57;6.80;;;3.20;99.90;;;;;;4993047;28;20140;-80
2021/03/20 07:41:46;;;;;;;11.63;6.80;;;3.30;99.90;;;;;;5011794;28;20511;-81
2021/03/20 07:44:55;;;;;;;14.00;6.82;;;3.40;99.90;;;;;;5011021;28;20456;-81
2021/03/20 07:47:27;;;;;;;10.07;6.43;;;3.50;99.90;;;;;;4985211;28;20465;-81
2021/03/20 07:50:18;;;;;;;10.70;6.07;;;3.50;99.90;;;;;;5010905;28;21037;-80
2021/03/20 07:52:47;;;;;;;10.93;6.13;;;3.60;99.90;;;;;;5006950;28;20073;-81
2021/03/20 07:55:23;;;;;;;8.73;6.13;;;3.70;99.90;;;;;;4986894;28;20053;-80
2021/03/20 07:57:57;;;;;;;10.63;6.45;;;3.80;99.90;;;;;;4990732;28;20053;-80
2021/03/20 08:00:29;;;;;;;12.32;5.95;;;3.90;99.90;;;;;;5008814;28;20042;-80
2021/03/20 08:03:05;;;;;;;9.48;6.93;;;4.00;99.90;;;;;;5008956;28;20061;-81
2021/03/20 08:05:37;;;;;;;11.13;6.45;;;4.10;99.90;;;;;;5008156;28;20137;-80
2021/03/20 08:08:23;;;;;;;7.97;5.93;;;4.10;99.90;;;;;;5005995;28;20057;-81
2021/03/20 08:10:55;;;;;;;10.65;6.85;;;4.30;99.90;;;;;;5000313;28;20045;-82
2021/03/20 08:13:44;;;;;;;14.02;6.53;;;4.60;99.90;;;;;;4990967;28;20065;-80
2021/03/20 08:16:12;;;;;;;8.88;5.68;;;5.00;99.90;;;;;;4997769;28;20107;-81
2021/03/20 08:18:40;;;;;;;10.27;5.68;;;5.30;99.90;;;;;;5006526;28;20386;-80
2021/03/20 08:21:25;;;;;;;10.25;6.05;;;5.50;99.90;;;;;;4998522;28;20049;-79
2021/03/20 08:24:24;;;;;;;9.15;6.13;;;5.70;99.90;;;;;;4997538;28;20105;-80
2021/03/20 08:27:04;;;;;;;9.68;5.70;;;5.80;99.90;;;;;;4956543;28;20537;-80
2021/03/20 08:30:05;;;;;;;9.73;5.68;;;5.90;99.90;;;;;;4990787;28;20176;-80
2021/03/20 08:32:54;;;;;;;8.63;6.10;;;5.90;99.90;;;;;;5006617;28;20496;-81
2021/03/20 08:35:35;;;;;;;10.10;5.93;;;5.90;99.90;;;;;;4990717;28;20041;-80
2021/03/20 08:38:20;;;;;;;6.68;5.07;;;6.00;99.90;;;;;;4994185;28;20061;-80
2021/03/20 08:41:04;;;;;;;6.57;5.05;;;6.20;99.90;;;;;;5007343;28;20052;-81
2021/03/20 08:43:51;;;;;;;9.35;5.50;;;6.40;99.90;;;;;;4998437;28;20140;-79
2021/03/20 08:46:29;;;;;;;8.57;6.20;;;6.60;99.90;;;;;;4990621;28;20046;-79
2021/03/20 08:49:32;;;;;;;11.90;5.60;;;6.70;99.90;;;;;;5005597;28;20144;-79
2021/03/20 08:52:06;;;;;;;7.82;5.60;;;6.80;99.90;;;;;;5006263;28;20157;-79
2021/03/20 08:54:52;;;;;;;10.93;5.60;;;6.80;99.90;;;;;;4997029;28;21505;-80
2021/03/20 08:57:31;;;;;;;8.98;5.50;;;6.80;99.90;;;;;;5003793;28;20149;-80
2021/03/20 09:00:03;;;;;;;7.57;5.13;;;6.80;99.90;;;;;;5005684;28;20699;-80
2021/03/20 09:02:36;;;;;;;7.10;4.97;;;6.80;99.90;;;;;;5006014;28;20137;-81
2021/03/20 09:05:11;;;;;;;7.43;4.10;;;6.80;99.90;;;;;;4985292;28;20065;-81
2021/03/20 09:08:06;;;;;;;5.90;4.43;;;6.80;99.90;;;;;;5009495;28;20065;-80
2021/03/20 09:10:43;;;;;;;6.07;4.13;;;6.90;99.90;;;;;;4998571;28;20060;-81
2021/03/20 09:13:30;;;;;;;7.40;4.63;;;7.10;99.90;;;;;;5007482;28;20068;-80
2021/03/20 09:16:09;;;;;;;11.02;4.70;;;7.20;99.90;;;;;;5004967;28;20050;-80
2021/03/20 09:18:38;;;;;;;5.43;3.72;;;7.50;99.90;;;;;;4984125;28;20045;-80
2021/03/20 09:21:06;;;;;;;4.78;3.90;;;7.70;99.90;;;;;;5010402;28;20064;-80
2021/03/20 09:23:39;;;;;;;7.00;4.30;;;7.90;99.90;;;;;;5006565;28;20056;-80
2021/03/20 09:26:26;;;;;;;5.65;4.00;;;8.10;99.90;;;;;;4993253;28;20056;-80
2021/03/20 09:28:52;;;;;;;5.72;3.67;;;8.30;99.90;;;;;;5010840;28;20071;-80
2021/03/20 09:31:32;;;;;;;4.22;3.28;;;8.50;99.50;;;;;;5008603;28;20096;-81
2021/03/20 09:34:17;;;;;;;4.03;3.00;;;8.60;99.50;;;;;;5007311;28;20048;-80
2021/03/20 09:36:48;;;;;;;4.72;3.22;;;8.80;96.40;;;;;;5012363;28;20057;-81
2021/03/20 09:39:45;;;;;;;6.65;3.40;;;8.90;96.40;;;;;;5009429;28;20129;-79
2021/03/20 09:42:29;;;;;;;7.28;3.33;;;9.00;96.00;;;;;;5007520;28;20597;-80
2021/03/20 09:45:21;;;;;;;;;;;9.10;97.70;;;;;;5008495;28;20387;-81
2021/03/20 09:47:53;;;;;;;3.80;2.95;;;9.30;96.20;;;;;;4990828;28;20584;-80
2021/03/20 09:50:19;;;;;;;4.88;3.28;;;9.30;95.70;;;;;;4992537;28;20049;-80
2021/03/20 09:52:56;;;;;;;4.40;3.00;;;9.30;93.80;;;;;;5008936;28;20140;-80
2021/03/20 09:55:34;;;;;;;3.10;2.38;;;9.30;88.10;;;;;;4985248;28;20115;-79
2021/03/20 09:58:20;;;;;;;4.25;2.78;;;9.20;89.00;;;;;;5010229;28;20050;-82
2021/03/20 10:00:53;;;;;;;4.70;2.90;;;9.00;88.70;;;;;;5012160;28;20069;-85
2021/03/20 10:03:38;;;;;;;;;;;8.90;87.90;;;;;;5010454;28;20066;-81
2021/03/20 10:06:11;;;;;;;;;;;8.70;90.70;;;;;;4992136;28;19925;-79
2021/03/20 10:08:44;;;;;;;4.28;3.70;;;8.60;90.80;;;;;;5005902;28;20032;-79
2021/03/20 10:11:40;;;;;;;5.13;3.67;;;8.70;93.10;;;;;;4991664;28;20064;-80
2021/03/20 10:14:55;;;;;;;4.75;3.67;;;8.80;93.90;;;;;;4990287;28;20153;-79
2021/03/20 10:17:28;;;;;;;5.38;3.65;;;8.90;93.90;;;;;;4960936;28;20511;-79
2021/03/20 10:20:20;;;;;;;4.95;3.80;;;9.00;94.70;;;;;;5003625;28;20100;-79
2021/03/20 10:22:55;;;;;;;6.03;4.57;;;9.20;94.70;;;;;;4983305;28;20560;-79
2021/03/20 10:25:23;;;;;;;7.57;4.68;;;9.20;93.90;;;;;;5009145;28;20116;-81
2021/03/20 10:28:06;;;;;;;;;;;9.30;95.70;;;;;;5000595;28;20046;-80
2021/03/20 10:30:35;;;;;;;6.20;3.95;;;9.40;97.60;;;;;;4990293;28;20320;-80
2021/03/20 10:33:06;;;;;;;5.25;3.90;;;9.50;94.50;;;;;;4992806;28;20073;-79
2021/03/20 10:35:36;;;;;;;7.35;5.20;;;9.60;95.30;;;;;;4992297;28;20045;-80
2021/03/20 10:38:21;;;;;;;5.95;4.70;;;9.80;94.90;;;;;;4994735;28;20049;-79
2021/03/20 10:41:04;;;;;;;5.78;4.13;;;9.90;93.30;;;;;;5009281;28;20149;-79
2021/03/20 10:43:38;;;;;;;5.70;4.40;;;9.90;94.80;;;;;;5009661;28;20866;-78
2021/03/20 10:46:05;;;;;;;5.60;4.78;;;10.10;93.30;;;;;;4995080;28;20045;-78
2021/03/20 10:48:32;;;;;;;7.95;5.35;;;10.20;94.00;;;;;;5009267;28;20058;-80
2021/03/20 10:51:05;;;;;;;9.35;4.65;;;10.40;95.00;;;;;;5009288;28;20054;-79
2021/03/20 10:53:40;;;;;;;5.65;4.07;;;10.60;91.30;;;;;;4995431;28;20095;-79
2021/03/20 10:56:35;;;;;;;5.38;4.03;;;10.60;90.40;;;;;;5001859;28;20134;-79
2021/03/20 10:59:11;;;;;;;;;;;10.40;89.90;;;;;;4993705;28;20723;-80
2021/03/20 11:01:37;;;;;;;4.45;3.30;;;10.20;90.20;;;;;;4995029;28;20023;-80
2021/03/20 11:04:04;;;;;;;4.13;3.30;;;10.30;91.30;;;;;;4984768;28;20177;-79
2021/03/20 11:06:32;;;;;;;7.50;4.93;;;10.40;90.10;;;;;;4995645;28;20565;-79
2021/03/20 11:09:22;;;;;;;6.10;4.50;;;10.50;90.30;;;;;;4991077;28;20498;-79
2021/03/20 11:11:49;;;;;;;5.68;3.50;;;10.70;89.80;;;;;;4998845;28;20042;-80
2021/03/20 11:14:21;;;;;;;5.90;3.47;;;10.70;91.60;;;;;;5009098;28;20073;-79
2021/03/20 11:16:57;;;;;;;5.28;3.55;;;10.90;89.20;;;;;;4985448;28;20057;-79
2021/03/20 11:19:42;;;;;;;6.57;4.00;;;11.10;92.20;;;;;;5010148;28;20042;-84
2021/03/20 11:22:35;;;;;;;5.68;3.97;;;11.30;89.70;;;;;;4993032;28;20145;-84
2021/03/20 11:25:10;;;;;;;5.63;4.32;;;11.30;90.20;;;;;;4996121;28;20056;-80
2021/03/20 11:27:38;;;;;;;7.32;4.72;;;11.30;88.00;;;;;;4993921;28;20058;-80
2021/03/20 11:30:16;;;;;;;7.80;4.38;;;11.50;92.30;;;;;;4994168;28;20268;-80
2021/03/20 11:32:46;;;;;;;7.43;4.85;;;11.70;88.50;;;;;;5010582;28;20049;-80
2021/03/20 11:35:27;;;;;;;8.75;4.90;;;12.00;89.10;;;;;;4978846;28;20049;-78
2021/03/20 11:37:59;;;;;;;7.53;5.07;;;12.20;87.60;;;;;;4987235;28;20052;-78
2021/03/20 11:40:47;;;;;;;9.52;5.28;;;12.50;87.40;;;;;;5007736;28;20056;-79
2021/03/20 11:43:21;;;;;;;8.35;5.22;;;12.60;83.90;;;;;;5009493;28;20071;-80
2021/03/20 11:45:49;;;;;;;7.22;5.20;;;12.60;81.60;;;;;;5006313;28;20046;-81
2021/03/20 11:48:27;;;;;;;8.07;5.10;;;12.80;84.50;;;;;;4985280;28;20050;-79
2021/03/20 11:50:58;;;;;;;5.85;4.65;;;13.00;79.00;;;;;;5008415;28;20045;-79
2021/03/20 11:53:42;;;;;;;7.35;5.28;;;13.30;77.60;;;;;;4982093;28;20132;-80
2021/03/20 11:56:17;;;;;;;;;;;13.50;76.80;;;;;;5006169;28;20057;-79
2021/03/20 11:59:05;;;;;;;9.02;4.97;;;13.70;74.30;;;;;;5006033;28;19968;-79
2021/03/20 12:01:34;;;;;;;8.02;5.40;;;13.80;77.00;;;;;;5008317;28;20125;-78
2021/03/20 12:04:10;;;;;;;12.48;6.78;;;14.00;74.20;;;;;;5000038;28;20100;-80
2021/03/20 12:06:37;;;;;;;8.43;6.10;;;14.10;74.20;;;;;;4990977;28;20058;-79
2021/03/20 12:09:28;;;;;;;8.55;6.05;;;14.20;73.20;;;;;;5009801;28;20057;-80
2021/03/20 12:11:57;;;;;;;8.35;6.07;;;14.20;73.80;;;;;;5007318;28;20136;-80
2021/03/20 12:14:27;;;;;;;8.35;6.00;;;14.10;71.20;;;;;;4990453;28;20132;-81
2021/03/20 12:17:10;;;;;;;7.70;6.13;;;14.00;72.90;;;;;;5010404;28;20137;-80
2021/03/20 12:20:01;;;;;;;9.25;5.90;;;13.80;71.80;;;;;;5009501;28;20053;-81
2021/03/20 12:22:32;;;;;;;9.57;6.07;;;13.40;71.80;;;;;;5009253;28;20072;-80
2021/03/20 12:25:43;;;;;;;8.95;6.10;;;13.30;75.50;;;;;;5007075;28;20144;-81
2021/03/20 12:28:34;;;;;;;10.75;5.93;;;13.30;73.90;;;;;;4989368;28;20066;-81
2021/03/20 12:31:14;;;;;;;8.02;6.30;;;13.20;72.60;;;;;;4993576;28;20045;-80
2021/03/20 12:33:52;;;;;;;10.70;6.35;;;13.30;77.10;;;;;;5008346;28;20077;-79
2021/03/20 12:36:30;;;;;;;10.15;6.22;;;13.50;75.00;;;;;;4985852;28;20117;-81
2021/03/20 12:38:57;;;;;;;9.52;6.30;;;13.70;72.10;;;;;;4985616;28;20149;-80
2021/03/20 12:41:29;;;;;;;8.35;6.00;;;13.60;72.90;;;;;;4987530;28;20460;-79
2021/03/20 12:44:12;;;;;;;8.73;5.75;;;13.40;74.70;;;;;;4994536;28;20057;-80
2021/03/20 12:46:42;;;;;;;8.27;6.03;;;13.20;74.30;;;;;;5009165;28;20049;-80
2021/03/20 12:49:11;;;;;;;6.40;5.35;;;13.00;74.60;;;;;;5003416;28;20057;-80
2021/03/20 12:51:37;;;;;;;7.25;5.43;;;12.80;75.80;;;;;;4980306;28;20484;-79
2021/03/20 12:54:04;;;;;;;6.53;5.03;;;12.50;76.30;;;;;;5006834;28;20073;-79
2021/03/20 12:56:30;;;;;;;9.43;5.50;;;12.30;77.20;;;;;;5006368;28;20512;-78
2021/03/20 12:58:56;;;;;;;9.93;5.32;;;12.10;79.30;;;;;;5001447;28;20050;-77
2021/03/20 13:01:22;;;;;;;7.88;5.57;;;11.90;80.90;;;;;;5001611;28;20054;-77
2021/03/20 13:03:51;;;;;;;10.20;5.30;;;11.80;82.40;;;;;;4991820;28;20054;-77
2021/03/20 13:06:18;;;;;;;8.38;5.40;;;11.80;84.60;;;;;;5003546;28;20535;-78
2021/03/20 13:08:45;;;;;;;12.70;5.80;;;11.80;85.30;;;;;;4987801;28;20112;-80
2021/03/20 13:11:25;;;;;;;8.30;6.00;;;11.60;87.50;;;;;;5006499;28;20068;-77
2021/03/20 13:13:53;;;;;;;7.38;6.15;;;11.60;91.20;;;;;;4984925;28;20047;-78
2021/03/20 13:16:19;;;;;;;7.43;5.30;;;11.40;90.50;;;;;;5005181;28;20100;-80
2021/03/20 13:18:46;;;;;;;7.82;5.70;;;11.30;90.60;;;;;;5005978;28;20478;-81
2021/03/20 13:21:17;;;;;;;9.77;6.43;;;11.10;93.00;;;;;;4998299;28;20479;-79
2021/03/20 13:23:44;;;;;;;8.05;5.25;;;11.00;94.10;;;;;;4991615;28;20130;-79
2021/03/20 13:26:10;;;;;;;6.07;4.45;;;11.00;97.40;;;;;;4986622;28;20053;-78
2021/03/20 13:28:37;;;;;;;6.03;3.95;;;10.90;98.10;;;;;;4990422;28;20057;-79
2021/03/20 13:31:04;;;;;;;7.25;4.20;;;10.90;99.10;;;;;;5005667;28;20053;-78
2021/03/20 13:33:30;;;;;;;8.57;3.75;;;11.00;99.10;;;;;;4963684;28;20069;-78
2021/03/20 13:35:57;;;;;;;8.52;4.43;;;10.90;98.10;;;;;;4993824;28;20050;-77
2021/03/20 13:38:24;;;;;;;7.15;3.92;;;10.80;99.90;;;;;;5003711;28;20060;-78